sensor_id;sensor_type;location;lat;lon;timestamp;pressure;altitude;pressure_sealevel;temperature;humidity
48563;BME280;34981;49.104;11.396;2023-04-08T00:01:22;96131.50;;;3.64;100.00
48563;BME280;34981;49.104;11.396;2023-04-08T00:03:49;96094.84;;;3.66;100.00
48563;BME280;34981;49.104;11.396;2023-04-08T00:06:16;96063.41;;;3.63;100.00
48563;BME280;34981;49.104;11.396;2023-04-08T00:08:43;96038.22;;;3.66;100.00
48563;BME280;34981;49.104;11.396;2023-04-08T00:11:10;95995.03;;;3.70;100.00
48563;BME280;34981;49.104;11.396;2023-04-08T00:13:37;95953.53;;;3.69;100.00
48563;BME280;34981;49.104;11.396;2023-04-08T00:16:04;95913.22;;;3.72;100.00
48563;BME280;34981;49.104;11.396;2023-04-08T00:18:35;95871.94;;;3.70;100.00
48563;BME280;34981;49.104;11.396;2023-04-08T00:21:04;95816.22;;;3.63;100.00
48563;BME280;34981;49.104;11.396;2023-04-08T00:23:31;95774.72;;;3.62;100.00
48563;BME280;34981;49.104;11.396;2023-04-08T00:25:58;95736.69;;;3.62;100.00
48563;BME280;34981;49.104;11.396;2023-04-08T00:28:25;95698.34;;;3.58;100.00
48563;BME280;34981;49.104;11.396;2023-04-08T00:30:53;95656.41;;;3.48;100.00
48563;BME280;34981;49.104;11.396;2023-04-08T00:33:20;95619.66;;;3.45;100.00
48563;BME280;34981;49.104;11.396;2023-04-08T00:35:48;95584.50;;;3.66;100.00
48563;BME280;34981;49.104;11.396;2023-04-08T00:38:15;95563.91;;;3.73;100.00
48563;BME280;34981;49.104;11.396;2023-04-08T00:40:42;95535.47;;;3.74;100.00
48563;BME280;34981;49.104;11.396;2023-04-08T00:43:10;95515.66;;;3.81;100.00
48563;BME280;34981;49.104;11.396;2023-04-08T00:45:37;95498.25;;;3.74;100.00
48563;BME280;34981;49.104;11.396;2023-04-08T00:48:04;95477.50;;;3.59;100.00
48563;BME280;34981;49.104;11.396;2023-04-08T00:50:31;95456.97;;;3.55;100.00
48563;BME280;34981;49.104;11.396;2023-04-08T00:52:59;95424.28;;;3.54;100.00
48563;BME280;34981;49.104;11.396;2023-04-08T00:55:26;95419.69;;;3.49;100.00
48563;BME280;34981;49.104;11.396;2023-04-08T00:57:53;95402.94;;;3.49;100.00
48563;BME280;34981;49.104;11.396;2023-04-08T01:00:22;95389.16;;;3.52;100.00
48563;BME280;34981;49.104;11.396;2023-04-08T01:03:00;95376.38;;;3.49;100.00
48563;BME280;34981;49.104;11.396;2023-04-08T01:05:35;95378.44;;;3.47;100.00
48563;BME280;34981;49.104;11.396;2023-04-08T01:08:05;95374.66;;;3.43;100.00
48563;BME280;34981;49.104;11.396;2023-04-08T01:10:34;95350.50;;;3.44;100.00
48563;BME280;34981;49.104;11.396;2023-04-08T01:13:04;95335.13;;;3.46;100.00
48563;BME280;34981;49.104;11.396;2023-04-08T01:15:35;95330.63;;;3.47;100.00
48563;BME280;34981;49.104;11.396;2023-04-08T01:18:05;95343.81;;;3.42;100.00
48563;BME280;34981;49.104;11.396;2023-04-08T01:20:32;95334.47;;;3.39;100.00
48563;BME280;34981;49.104;11.396;2023-04-08T01:25:34;95331.66;;;3.46;100.00
48563;BME280;34981;49.104;11.396;2023-04-08T01:28:04;95332.84;;;3.38;100.00
48563;BME280;34981;49.104;11.396;2023-04-08T01:30:32;95342.22;;;3.41;100.00
48563;BME280;34981;49.104;11.396;2023-04-08T01:33:00;95348.34;;;3.41;100.00
48563;BME280;34981;49.104;11.396;2023-04-08T01:35:28;95353.31;;;3.38;100.00
48563;BME280;34981;49.104;11.396;2023-04-08T01:37:56;95357.56;;;3.39;100.00
48563;BME280;34981;49.104;11.396;2023-04-08T01:40:25;95374.00;;;3.36;100.00
48563;BME280;34981;49.104;11.396;2023-04-08T01:42:53;95387.28;;;3.36;100.00
48563;BME280;34981;49.104;11.396;2023-04-08T01:45:22;95401.63;;;3.35;100.00
48563;BME280;34981;49.104;11.396;2023-04-08T01:47:49;95404.28;;;3.35;100.00
48563;BME280;34981;49.104;11.396;2023-04-08T01:50:18;95430.84;;;3.35;100.00
48563;BME280;34981;49.104;11.396;2023-04-08T01:52:46;95438.59;;;3.25;100.00
48563;BME280;34981;49.104;11.396;2023-04-08T01:55:15;95453.34;;;3.32;100.00
48563;BME280;34981;49.104;11.396;2023-04-08T01:57:44;95474.84;;;3.31;100.00
48563;BME280;34981;49.104;11.396;2023-04-08T02:00:15;95484.09;;;3.28;100.00
48563;BME280;34981;49.104;11.396;2023-04-08T02:02:51;95514.13;;;3.29;100.00
48563;BME280;34981;49.104;11.396;2023-04-08T02:05:19;95528.19;;;3.29;100.00
48563;BME280;34981;49.104;11.396;2023-04-08T02:07:46;95547.84;;;3.28;100.00
48563;BME280;34981;49.104;11.396;2023-04-08T02:10:14;95570.94;;;3.28;100.00
48563;BME280;34981;49.104;11.396;2023-04-08T02:12:42;95589.19;;;3.36;100.00
48563;BME280;34981;49.104;11.396;2023-04-08T02:15:10;95597.41;;;3.34;100.00
48563;BME280;34981;49.104;11.396;2023-04-08T02:18:01;95617.25;;;3.32;100.00
48563;BME280;34981;49.104;11.396;2023-04-08T02:25:22;95679.28;;;3.26;100.00
48563;BME280;34981;49.104;11.396;2023-04-08T02:27:51;95691.16;;;3.23;100.00
48563;BME280;34981;49.104;11.396;2023-04-08T02:30:18;95712.19;;;3.25;100.00
48563;BME280;34981;49.104;11.396;2023-04-08T02:32:47;95729.84;;;3.19;100.00
48563;BME280;34981;49.104;11.396;2023-04-08T02:35:14;95752.94;;;3.19;100.00
48563;BME280;34981;49.104;11.396;2023-04-08T02:37:43;95770.03;;;3.11;100.00
48563;BME280;34981;49.104;11.396;2023-04-08T02:40:26;95787.91;;;3.16;100.00
48563;BME280;34981;49.104;11.396;2023-04-08T02:42:55;95812.63;;;3.16;100.00
48563;BME280;34981;49.104;11.396;2023-04-08T02:45:24;95829.47;;;3.10;100.00
48563;BME280;34981;49.104;11.396;2023-04-08T02:47:53;95851.91;;;3.14;100.00
48563;BME280;34981;49.104;11.396;2023-04-08T02:50:20;95869.09;;;3.11;100.00
48563;BME280;34981;49.104;11.396;2023-04-08T02:52:47;95894.03;;;3.10;100.00
48563;BME280;34981;49.104;11.396;2023-04-08T02:55:15;95922.66;;;3.08;100.00
48563;BME280;34981;49.104;11.396;2023-04-08T02:57:42;95936.59;;;3.04;100.00
48563;BME280;34981;49.104;11.396;2023-04-08T03:00:09;95962.34;;;3.03;100.00
48563;BME280;34981;49.104;11.396;2023-04-08T03:02:37;95988.91;;;3.03;100.00
48563;BME280;34981;49.104;11.396;2023-04-08T03:05:04;96016.69;;;3.01;100.00
48563;BME280;34981;49.104;11.396;2023-04-08T03:07:32;96033.91;;;2.98;100.00
48563;BME280;34981;49.104;11.396;2023-04-08T03:09:59;96053.59;;;2.91;100.00
48563;BME280;34981;49.104;11.396;2023-04-08T03:12:26;96081.53;;;2.93;100.00
48563;BME280;34981;49.104;11.396;2023-04-08T03:14:54;96101.13;;;2.92;100.00
48563;BME280;34981;49.104;11.396;2023-04-08T03:17:21;96121.81;;;2.90;100.00
48563;BME280;34981;49.104;11.396;2023-04-08T03:19:48;96150.00;;;2.91;100.00
48563;BME280;34981;49.104;11.396;2023-04-08T03:22:15;96174.91;;;2.90;100.00
48563;BME280;34981;49.104;11.396;2023-04-08T03:24:42;96188.19;;;2.90;100.00
48563;BME280;34981;49.104;11.396;2023-04-08T03:27:09;96203.34;;;2.83;100.00
48563;BME280;34981;49.104;11.396;2023-04-08T03:29:38;96225.16;;;2.85;100.00
48563;BME280;34981;49.104;11.396;2023-04-08T03:32:06;96243.34;;;2.88;100.00
48563;BME280;34981;49.104;11.396;2023-04-08T03:34:33;96244.00;;;2.84;100.00
48563;BME280;34981;49.104;11.396;2023-04-08T03:37:01;96260.72;;;2.84;100.00
48563;BME280;34981;49.104;11.396;2023-04-08T03:39:28;96272.16;;;2.85;100.00
48563;BME280;34981;49.104;11.396;2023-04-08T03:41:55;96280.72;;;2.87;100.00
48563;BME280;34981;49.104;11.396;2023-04-08T03:44:23;96285.44;;;2.85;100.00
48563;BME280;34981;49.104;11.396;2023-04-08T03:46:50;96275.88;;;2.77;100.00
48563;BME280;34981;49.104;11.396;2023-04-08T03:49:17;96288.09;;;2.85;100.00
48563;BME280;34981;49.104;11.396;2023-04-08T03:51:44;96280.53;;;2.82;100.00
48563;BME280;34981;49.104;11.396;2023-04-08T03:54:11;96259.16;;;2.77;100.00
48563;BME280;34981;49.104;11.396;2023-04-08T03:56:38;96242.97;;;2.78;100.00
48563;BME280;34981;49.104;11.396;2023-04-08T03:59:05;96231.16;;;2.74;100.00
48563;BME280;34981;49.104;11.396;2023-04-08T04:01:32;96203.19;;;2.71;100.00
48563;BME280;34981;49.104;11.396;2023-04-08T04:04:00;96191.41;;;2.67;100.00
48563;BME280;34981;49.104;11.396;2023-04-08T04:06:27;96181.59;;;2.68;100.00
48563;BME280;34981;49.104;11.396;2023-04-08T04:08:54;96170.53;;;2.71;100.00
48563;BME280;34981;49.104;11.396;2023-04-08T04:11:22;96159.50;;;2.74;100.00
48563;BME280;34981;49.104;11.396;2023-04-08T04:13:49;96154.19;;;2.74;100.00
48563;BME280;34981;49.104;11.396;2023-04-08T04:16:16;96143.41;;;2.69;100.00
48563;BME280;34981;49.104;11.396;2023-04-08T04:18:43;96160.69;;;2.78;100.00
48563;BME280;34981;49.104;11.396;2023-04-08T04:21:10;96151.34;;;2.76;100.00
48563;BME280;34981;49.104;11.396;2023-04-08T04:23:37;96155.38;;;2.78;100.00
48563;BME280;34981;49.104;11.396;2023-04-08T04:26:08;96154.19;;;2.74;100.00
48563;BME280;34981;49.104;11.396;2023-04-08T04:28:36;96159.56;;;2.67;100.00
48563;BME280;34981;49.104;11.396;2023-04-08T04:31:03;96165.69;;;2.68;100.00
48563;BME280;34981;49.104;11.396;2023-04-08T04:33:30;96179.09;;;2.73;100.00
48563;BME280;34981;49.104;11.396;2023-04-08T04:35:58;96176.09;;;2.69;100.00
48563;BME280;34981;49.104;11.396;2023-04-08T04:38:25;96176.91;;;2.70;100.00
48563;BME280;34981;49.104;11.396;2023-04-08T04:40:52;96191.41;;;2.67;100.00
48563;BME280;34981;49.104;11.396;2023-04-08T04:43:20;96188.59;;;2.62;100.00
48563;BME280;34981;49.104;11.396;2023-04-08T04:45:47;96202.84;;;2.68;100.00
48563;BME280;34981;49.104;11.396;2023-04-08T04:48:14;96204.88;;;2.66;100.00
48563;BME280;34981;49.104;11.396;2023-04-08T04:50:41;96210.78;;;2.68;100.00
48563;BME280;34981;49.104;11.396;2023-04-08T04:53:08;96223.47;;;2.66;100.00
48563;BME280;34981;49.104;11.396;2023-04-08T04:55:35;96221.81;;;2.65;100.00
48563;BME280;34981;49.104;11.396;2023-04-08T04:58:05;96239.19;;;2.67;100.00
48563;BME280;34981;49.104;11.396;2023-04-08T05:00:32;96250.22;;;2.64;100.00
48563;BME280;34981;49.104;11.396;2023-04-08T05:02:59;96253.09;;;2.63;100.00
48563;BME280;34981;49.104;11.396;2023-04-08T05:05:27;96265.31;;;2.64;100.00
48563;BME280;34981;49.104;11.396;2023-04-08T05:07:54;96291.03;;;2.70;100.00
48563;BME280;34981;49.104;11.396;2023-04-08T05:10:21;96297.13;;;2.70;100.00
48563;BME280;34981;49.104;11.396;2023-04-08T05:12:48;96296.91;;;2.72;100.00
48563;BME280;34981;49.104;11.396;2023-04-08T05:15:16;96294.66;;;2.76;100.00
48563;BME280;34981;49.104;11.396;2023-04-08T05:17:43;96305.09;;;2.77;100.00
48563;BME280;34981;49.104;11.396;2023-04-08T05:20:10;96307.75;;;2.77;100.00
48563;BME280;34981;49.104;11.396;2023-04-08T05:22:37;96312.41;;;2.82;100.00
48563;BME280;34981;49.104;11.396;2023-04-08T05:25:05;96325.47;;;2.83;100.00
48563;BME280;34981;49.104;11.396;2023-04-08T05:27:32;96326.50;;;2.82;100.00
48563;BME280;34981;49.104;11.396;2023-04-08T05:29:59;96339.94;;;2.87;100.00
48563;BME280;34981;49.104;11.396;2023-04-08T05:32:26;96358.50;;;2.94;100.00
48563;BME280;34981;49.104;11.396;2023-04-08T05:34:55;96366.66;;;2.92;100.00
48563;BME280;34981;49.104;11.396;2023-04-08T05:37:22;96374.63;;;2.92;100.00
48563;BME280;34981;49.104;11.396;2023-04-08T05:39:49;96379.53;;;2.95;100.00
48563;BME280;34981;49.104;11.396;2023-04-08T05:42:17;96396.06;;;2.97;100.00
48563;BME280;34981;49.104;11.396;2023-04-08T05:44:44;96409.72;;;3.01;100.00
48563;BME280;34981;49.104;11.396;2023-04-08T05:47:11;96414.22;;;3.00;100.00
48563;BME280;34981;49.104;11.396;2023-04-08T05:49:39;96414.22;;;3.00;100.00
48563;BME280;34981;49.104;11.396;2023-04-08T05:52:06;96416.28;;;2.98;100.00
48563;BME280;34981;49.104;11.396;2023-04-08T05:54:33;96429.97;;;3.02;100.00
48563;BME280;34981;49.104;11.396;2023-04-08T05:57:00;96439.19;;;2.99;100.00
48563;BME280;34981;49.104;11.396;2023-04-08T05:59:27;96453.47;;;2.98;100.00
48563;BME280;34981;49.104;11.396;2023-04-08T06:01:54;96468.38;;;2.99;100.00
48563;BME280;34981;49.104;11.396;2023-04-08T06:04:22;96476.34;;;2.99;100.00
48563;BME280;34981;49.104;11.396;2023-04-08T06:06:50;96501.31;;;2.92;100.00
48563;BME280;34981;49.104;11.396;2023-04-08T06:09:17;96522.94;;;2.95;100.00
48563;BME280;34981;49.104;11.396;2023-04-08T06:11:44;96538.03;;;2.95;100.00
48563;BME280;34981;49.104;11.396;2023-04-08T06:14:13;96549.09;;;2.98;100.00
48563;BME280;34981;49.104;11.396;2023-04-08T06:16:40;96556.44;;;2.90;100.00
48563;BME280;34981;49.104;11.396;2023-04-08T06:19:07;96569.53;;;2.85;100.00
48563;BME280;34981;49.104;11.396;2023-04-08T06:21:34;96580.94;;;2.85;100.00
48563;BME280;34981;49.104;11.396;2023-04-08T06:24:02;96583.00;;;2.77;100.00
48563;BME280;34981;49.104;11.396;2023-04-08T06:26:29;96603.63;;;2.74;100.00
48563;BME280;34981;49.104;11.396;2023-04-08T06:28:56;96629.56;;;2.72;100.00
48563;BME280;34981;49.104;11.396;2023-04-08T06:31:23;96635.28;;;2.63;100.00
48563;BME280;34981;49.104;11.396;2023-04-08T06:33:50;96656.09;;;2.66;100.00
48563;BME280;34981;49.104;11.396;2023-04-08T06:36:18;96681.81;;;2.59;100.00
48563;BME280;34981;49.104;11.396;2023-04-08T06:38:45;96700.19;;;2.47;100.00
48563;BME280;34981;49.104;11.396;2023-04-08T06:41:12;96732.41;;;2.51;100.00
48563;BME280;34981;49.104;11.396;2023-04-08T06:43:39;96776.13;;;2.55;100.00
48563;BME280;34981;49.104;11.396;2023-04-08T06:46:06;96795.31;;;2.57;100.00
48563;BME280;34981;49.104;11.396;2023-04-08T06:48:47;96817.16;;;2.52;100.00
48563;BME280;34981;49.104;11.396;2023-04-08T06:51:14;96835.28;;;2.49;100.00
48563;BME280;34981;49.104;11.396;2023-04-08T06:53:41;96867.78;;;2.51;100.00
48563;BME280;34981;49.104;11.396;2023-04-08T06:56:08;96886.16;;;2.52;100.00
48563;BME280;34981;49.104;11.396;2023-04-08T06:58:36;96905.03;;;2.36;100.00
48563;BME280;34981;49.104;11.396;2023-04-08T07:01:03;96925.44;;;2.35;100.00
48563;BME280;34981;49.104;11.396;2023-04-08T07:03:30;96976.97;;;2.48;100.00
48563;BME280;34981;49.104;11.396;2023-04-08T07:05:58;97000.88;;;2.48;100.00
48563;BME280;34981;49.104;11.396;2023-04-08T07:08:25;97015.16;;;2.47;100.00
48563;BME280;34981;49.104;11.396;2023-04-08T07:10:53;97044.91;;;2.42;100.00
48563;BME280;34981;49.104;11.396;2023-04-08T07:13:20;97064.28;;;2.43;100.00
48563;BME280;34981;49.104;11.396;2023-04-08T07:15:47;97095.94;;;2.44;100.00
48563;BME280;34981;49.104;11.396;2023-04-08T07:18:14;97107.50;;;2.37;100.00
48563;BME280;34981;49.104;11.396;2023-04-08T07:20:41;97126.03;;;2.30;100.00
48563;BME280;34981;49.104;11.396;2023-04-08T07:23:08;97144.03;;;2.34;100.00
48563;BME280;34981;49.104;11.396;2023-04-08T07:25:35;97162.59;;;2.34;100.00
48563;BME280;34981;49.104;11.396;2023-04-08T07:28:02;97177.25;;;2.30;100.00
48563;BME280;34981;49.104;11.396;2023-04-08T07:30:30;97210.00;;;2.38;100.00
48563;BME280;34981;49.104;11.396;2023-04-08T07:32:57;97235.00;;;2.28;100.00
48563;BME280;34981;49.104;11.396;2023-04-08T07:35:27;97252.19;;;2.32;100.00
48563;BME280;34981;49.104;11.396;2023-04-08T07:37:54;97273.97;;;2.28;100.00
48563;BME280;34981;49.104;11.396;2023-04-08T07:40:21;97299.66;;;2.27;100.00
48563;BME280;34981;49.104;11.396;2023-04-08T07:42:48;97319.28;;;2.26;100.00
48563;BME280;34981;49.104;11.396;2023-04-08T07:45:16;97352.38;;;2.30;100.00
48563;BME280;34981;49.104;11.396;2023-04-08T07:47:43;97377.44;;;2.28;100.00
48563;BME280;34981;49.104;11.396;2023-04-08T07:50:10;97409.75;;;2.31;100.00
48563;BME280;34981;49.104;11.396;2023-04-08T07:52:37;97413.97;;;2.26;100.00
48563;BME280;34981;49.104;11.396;2023-04-08T07:55:05;97438.47;;;2.28;100.00
48563;BME280;34981;49.104;11.396;2023-04-08T07:57:32;97454.84;;;2.31;100.00
48563;BME280;34981;49.104;11.396;2023-04-08T07:59:59;97490.94;;;2.41;100.00
48563;BME280;34981;49.104;11.396;2023-04-08T08:02:27;97500.25;;;2.37;100.00
48563;BME280;34981;49.104;11.396;2023-04-08T08:04:54;97536.31;;;2.46;100.00
48563;BME280;34981;49.104;11.396;2023-04-08T08:07:21;97573.09;;;2.49;100.00
48563;BME280;34981;49.104;11.396;2023-04-08T08:09:48;97587.41;;;2.48;100.00
48563;BME280;34981;49.104;11.396;2023-04-08T08:12:16;97615.56;;;2.49;100.00
48563;BME280;34981;49.104;11.396;2023-04-08T08:14:43;97645.44;;;2.51;100.00
48563;BME280;34981;49.104;11.396;2023-04-08T08:17:10;97668.91;;;2.62;100.00
48563;BME280;34981;49.104;11.396;2023-04-08T08:19:38;97688.34;;;2.62;100.00
48563;BME280;34981;49.104;11.396;2023-04-08T08:22:05;97708.75;;;2.62;100.00
48563;BME280;34981;49.104;11.396;2023-04-08T08:24:33;97736.13;;;2.62;100.00
48563;BME280;34981;49.104;11.396;2023-04-08T08:27:00;97748.06;;;2.58;100.00
48563;BME280;34981;49.104;11.396;2023-04-08T08:29:28;97774.78;;;2.57;100.00
48563;BME280;34981;49.104;11.396;2023-04-08T08:31:55;97798.34;;;2.60;100.00
48563;BME280;34981;49.104;11.396;2023-04-08T08:34:22;97824.69;;;2.69;100.00
48563;BME280;34981;49.104;11.396;2023-04-08T08:36:49;97846.41;;;2.73;100.00
48563;BME280;34981;49.104;11.396;2023-04-08T08:39:17;97853.69;;;2.71;100.00
48563;BME280;34981;49.104;11.396;2023-04-08T08:41:44;97881.09;;;2.71;100.00
48563;BME280;34981;49.104;11.396;2023-04-08T08:44:11;97898.84;;;2.71;100.00
48563;BME280;34981;49.104;11.396;2023-04-08T08:46:42;97916.13;;;2.67;100.00
48563;BME280;34981;49.104;11.396;2023-04-08T08:49:10;97929.38;;;2.75;100.00
48563;BME280;34981;49.104;11.396;2023-04-08T08:51:39;97954.94;;;2.76;100.00
48563;BME280;34981;49.104;11.396;2023-04-08T08:54:06;97972.56;;;2.69;100.00
48563;BME280;34981;49.104;11.396;2023-04-08T08:56:34;97991.28;;;2.76;100.00
48563;BME280;34981;49.104;11.396;2023-04-08T08:59:01;98015.88;;;2.78;100.00
48563;BME280;34981;49.104;11.396;2023-04-08T09:04:09;98071.56;;;2.94;100.00
48563;BME280;34981;49.104;11.396;2023-04-08T09:06:37;98082.03;;;2.95;100.00
48563;BME280;34981;49.104;11.396;2023-04-08T09:09:04;98109.28;;;2.97;100.00
48563;BME280;34981;49.104;11.396;2023-04-08T09:11:37;98124.69;;;3.02;100.00
48563;BME280;34981;49.104;11.396;2023-04-08T09:14:21;98149.59;;;3.09;100.00
48563;BME280;34981;49.104;11.396;2023-04-08T09:16:49;98147.09;;;3.07;100.00
48563;BME280;34981;49.104;11.396;2023-04-08T09:19:17;98182.00;;;3.04;100.00
48563;BME280;34981;49.104;11.396;2023-04-08T09:21:44;98201.59;;;3.11;100.00
48563;BME280;34981;49.104;11.396;2023-04-08T09:24:28;98223.16;;;3.17;100.00
48563;BME280;34981;49.104;11.396;2023-04-08T09:26:56;98232.28;;;3.22;100.00
48563;BME280;34981;49.104;11.396;2023-04-08T09:29:23;98248.91;;;3.24;100.00
48563;BME280;34981;49.104;11.396;2023-04-08T09:31:54;98268.34;;;3.33;100.00
48563;BME280;34981;49.104;11.396;2023-04-08T09:34:22;98277.63;;;3.37;100.00
48563;BME280;34981;49.104;11.396;2023-04-08T09:36:50;98304.72;;;3.40;100.00
48563;BME280;34981;49.104;11.396;2023-04-08T09:39:18;98306.88;;;3.37;100.00
48563;BME280;34981;49.104;11.396;2023-04-08T09:41:47;98321.16;;;3.44;100.00
48563;BME280;34981;49.104;11.396;2023-04-08T09:44:15;98343.94;;;3.46;100.00
48563;BME280;34981;49.104;11.396;2023-04-08T09:49:24;98377.00;;;3.60;100.00
48563;BME280;34981;49.104;11.396;2023-04-08T09:57:15;98374.19;;;3.62;100.00
48563;BME280;34981;49.104;11.396;2023-04-08T09:59:44;98350.56;;;3.18;100.00
48563;BME280;34981;49.104;11.396;2023-04-08T10:02:15;98412.56;;;3.59;100.00
48563;BME280;34981;49.104;11.396;2023-04-08T10:04:45;98446.03;;;3.86;100.00
48563;BME280;34981;49.104;11.396;2023-04-08T10:07:14;98443.16;;;3.87;100.00
48563;BME280;34981;49.104;11.396;2023-04-08T10:09:42;98452.66;;;3.90;100.00
48563;BME280;34981;49.104;11.396;2023-04-08T10:12:09;98448.84;;;3.84;100.00
48563;BME280;34981;49.104;11.396;2023-04-08T10:14:36;98445.84;;;3.79;100.00
48563;BME280;34981;49.104;11.396;2023-04-08T10:17:24;98454.16;;;3.76;100.00
48563;BME280;34981;49.104;11.396;2023-04-08T10:19:53;98433.69;;;3.61;100.00
48563;BME280;34981;49.104;11.396;2023-04-08T10:27:43;98472.78;;;3.68;100.00
48563;BME280;34981;49.104;11.396;2023-04-08T10:32:59;98490.72;;;3.66;100.00
48563;BME280;34981;49.104;11.396;2023-04-08T10:35:30;98514.03;;;3.72;100.00
48563;BME280;34981;49.104;11.396;2023-04-08T10:37:58;98533.81;;;3.78;100.00
48563;BME280;34981;49.104;11.396;2023-04-08T10:40:25;98555.59;;;3.81;100.00
48563;BME280;34981;49.104;11.396;2023-04-08T10:42:56;98562.09;;;3.79;100.00
48563;BME280;34981;49.104;11.396;2023-04-08T10:45:23;98563.41;;;3.83;100.00
48563;BME280;34981;49.104;11.396;2023-04-08T10:47:50;98590.53;;;3.86;100.00
48563;BME280;34981;49.104;11.396;2023-04-08T10:50:18;98598.34;;;3.88;100.00
48563;BME280;34981;49.104;11.396;2023-04-08T10:52:49;98600.16;;;3.79;100.00
48563;BME280;34981;49.104;11.396;2023-04-08T10:55:23;98615.94;;;3.81;100.00
48563;BME280;34981;49.104;11.396;2023-04-08T10:57:51;98628.63;;;3.87;100.00
48563;BME280;34981;49.104;11.396;2023-04-08T11:00:19;98640.25;;;3.86;100.00
48563;BME280;34981;49.104;11.396;2023-04-08T11:02:46;98648.06;;;3.79;100.00
48563;BME280;34981;49.104;11.396;2023-04-08T11:05:13;98672.00;;;3.87;100.00
48563;BME280;34981;49.104;11.396;2023-04-08T11:07:41;98680.38;;;3.92;100.00
48563;BME280;34981;49.104;11.396;2023-04-08T11:10:08;98691.66;;;3.95;100.00
48563;BME280;34981;49.104;11.396;2023-04-08T11:12:35;98709.81;;;3.99;100.00
48563;BME280;34981;49.104;11.396;2023-04-08T11:15:03;98715.00;;;4.01;100.00
48563;BME280;34981;49.104;11.396;2023-04-08T11:17:32;98738.31;;;4.07;100.00
48563;BME280;34981;49.104;11.396;2023-04-08T11:20:00;98725.75;;;3.91;100.00
48563;BME280;34981;49.104;11.396;2023-04-08T11:22:32;98741.22;;;3.96;100.00
48563;BME280;34981;49.104;11.396;2023-04-08T11:25:02;98756.59;;;4.02;100.00
48563;BME280;34981;49.104;11.396;2023-04-08T11:27:29;98764.03;;;3.98;100.00
48563;BME280;34981;49.104;11.396;2023-04-08T11:29:56;98785.53;;;4.05;100.00
48563;BME280;34981;49.104;11.396;2023-04-08T11:32:25;98782.72;;;4.06;100.00
48563;BME280;34981;49.104;11.396;2023-04-08T11:34:52;98807.03;;;4.11;100.00
48563;BME280;34981;49.104;11.396;2023-04-08T11:37:19;98818.84;;;4.17;100.00
48563;BME280;34981;49.104;11.396;2023-04-08T11:39:47;98823.88;;;4.20;100.00
48563;BME280;34981;49.104;11.396;2023-04-08T11:42:30;98827.38;;;4.20;100.00
48563;BME280;34981;49.104;11.396;2023-04-08T11:44:57;98825.69;;;4.19;100.00
48563;BME280;34981;49.104;11.396;2023-04-08T11:47:29;98834.03;;;4.24;100.00
48563;BME280;34981;49.104;11.396;2023-04-08T11:49:58;98831.50;;;4.15;100.00
48563;BME280;34981;49.104;11.396;2023-04-08T11:55:11;98859.66;;;4.25;100.00
48563;BME280;34981;49.104;11.396;2023-04-08T11:57:39;98849.81;;;4.18;100.00
48563;BME280;34981;49.104;11.396;2023-04-08T12:00:06;98865.34;;;4.22;100.00
48563;BME280;34981;49.104;11.396;2023-04-08T12:02:36;98879.84;;;4.28;100.00
48563;BME280;34981;49.104;11.396;2023-04-08T12:05:04;98882.50;;;4.28;100.00
48563;BME280;34981;49.104;11.396;2023-04-08T12:07:31;98894.81;;;4.29;100.00
48563;BME280;34981;49.104;11.396;2023-04-08T12:09:58;98892.47;;;4.26;100.00
48563;BME280;34981;49.104;11.396;2023-04-08T12:12:25;98912.00;;;4.35;100.00
48563;BME280;34981;49.104;11.396;2023-04-08T12:14:52;98907.59;;;4.25;100.00
48563;BME280;34981;49.104;11.396;2023-04-08T12:17:20;98928.72;;;4.45;100.00
48563;BME280;34981;49.104;11.396;2023-04-08T12:19:47;98943.50;;;4.47;100.00
48563;BME280;34981;49.104;11.396;2023-04-08T12:22:14;98945.13;;;4.40;100.00
48563;BME280;34981;49.104;11.396;2023-04-08T12:24:42;98942.88;;;4.45;100.00
48563;BME280;34981;49.104;11.396;2023-04-08T12:27:10;98955.44;;;4.35;100.00
48563;BME280;34981;49.104;11.396;2023-04-08T12:29:37;98973.16;;;4.44;100.00
48563;BME280;34981;49.104;11.396;2023-04-08T12:32:05;98982.63;;;4.47;100.00
48563;BME280;34981;49.104;11.396;2023-04-08T12:34:32;98985.34;;;4.55;100.00
48563;BME280;34981;49.104;11.396;2023-04-08T12:36:59;99008.94;;;4.67;100.00
48563;BME280;34981;49.104;11.396;2023-04-08T12:39:26;99029.28;;;4.77;100.00
48563;BME280;34981;49.104;11.396;2023-04-08T12:41:54;99040.13;;;4.83;100.00
48563;BME280;34981;49.104;11.396;2023-04-08T12:44:21;99032.97;;;4.84;100.00
48563;BME280;34981;49.104;11.396;2023-04-08T12:46:48;99010.97;;;4.74;100.00
48563;BME280;34981;49.104;11.396;2023-04-08T12:49:15;99028.28;;;4.78;100.00
48563;BME280;34981;49.104;11.396;2023-04-08T12:51:43;99046.00;;;4.87;100.00
48563;BME280;34981;49.104;11.396;2023-04-08T12:54:10;99050.34;;;4.88;100.00
48563;BME280;34981;49.104;11.396;2023-04-08T12:56:37;99052.69;;;4.91;100.00
48563;BME280;34981;49.104;11.396;2023-04-08T12:59:05;99053.38;;;4.93;100.00
48563;BME280;34981;49.104;11.396;2023-04-08T13:01:32;99042.31;;;4.80;100.00
48563;BME280;34981;49.104;11.396;2023-04-08T13:03:59;99056.81;;;4.85;100.00
48563;BME280;34981;49.104;11.396;2023-04-08T13:06:26;99059.63;;;4.84;100.00
48563;BME280;34981;49.104;11.396;2023-04-08T13:08:54;99057.25;;;4.73;100.00
48563;BME280;34981;49.104;11.396;2023-04-08T13:11:21;99066.91;;;4.74;100.00
48563;BME280;34981;49.104;11.396;2023-04-08T13:13:48;99092.94;;;4.80;100.00
48563;BME280;34981;49.104;11.396;2023-04-08T13:16:15;99103.28;;;4.83;100.00
48563;BME280;34981;49.104;11.396;2023-04-08T13:18:42;99111.66;;;4.88;100.00
48563;BME280;34981;49.104;11.396;2023-04-08T13:21:10;99128.16;;;4.91;100.00
48563;BME280;34981;49.104;11.396;2023-04-08T13:23:37;99134.69;;;4.97;100.00